Terminal Aerodrome Forecast
Issued by NWS Binghamton, NY

Home | Current Version | Previous Version | Text Only | Print | Product List | Glossary On
Versions: 1 2 3 4 5 6 7 8 9 10 11 12 13 14 15 16 17 18 19 20
000
FTUS41 KBGM 011400 AAA
TAFBGM
TAF AMD
KBGM 011418Z 0114/0212 13005KT P6SM BKN009 OVC012
      TEMPO 0114/0115 5SM BR SCT009 OVC015
     FM011500 15008KT P6SM BKN025
      TEMPO 0115/0116 OVC015
     FM020000 15005KT P6SM SCT035
      TEMPO 0208/0212 3SM BR=

USA.gov is the U.S. government's official web portal to all federal, state and local government web resources and services.